Time;durP1;ratioP1;P1;durP2;ratioP2;P2;SDS_P1;SDS_P2;PMS_P1;PMS_P2;Temp;Humidity;BMP_temperature;BMP_pressure;BME280_temperature;BME280_humidity;BME280_pressure;Samples;Min_cycle;Max_cycle;Signal;HPM_P1;HPM_P2
2023/07/02 00:01:05;;;;;;;24.60;17.02;;;16.00;99.90;;;;;;5050482;28;20050;-80
2023/07/02 00:03:30;;;;;;;23.65;18.67;;;16.00;99.90;;;;;;5050603;28;20021;-80
2023/07/02 00:05:57;;;;;;;29.35;18.63;;;16.00;99.90;;;;;;5051517;28;20104;-79
2023/07/02 00:08:23;;;;;;;25.33;18.73;;;16.00;99.90;;;;;;5050543;28;20013;-79
2023/07/02 00:10:48;;;;;;;24.92;18.15;;;16.00;99.90;;;;;;5050215;28;20020;-79
2023/07/02 00:13:14;;;;;;;26.05;18.60;;;16.10;99.90;;;;;;5050534;28;20057;-80
2023/07/02 00:15:40;;;;;;;28.42;18.55;;;16.20;99.90;;;;;;5051492;28;20355;-79
2023/07/02 00:18:06;;;;;;;26.67;20.48;;;16.20;99.90;;;;;;5051490;28;20073;-79
2023/07/02 00:20:37;;;;;;;27.08;18.88;;;16.20;99.90;;;;;;5051586;28;20486;-79
2023/07/02 00:23:08;;;;;;;20.65;17.05;;;16.30;99.90;;;;;;5051620;28;20104;-80
2023/07/02 00:25:34;;;;;;;23.00;17.42;;;16.30;99.90;;;;;;5051404;28;20501;-79
2023/07/02 00:28:00;;;;;;;22.98;17.33;;;16.40;99.90;;;;;;5050109;28;20036;-79
2023/07/02 00:30:26;;;;;;;21.23;16.73;;;16.40;99.90;;;;;;5051270;28;20479;-79
2023/07/02 00:32:51;;;;;;;19.98;14.52;;;16.40;99.90;;;;;;5050044;28;20139;-79
2023/07/02 00:35:17;;;;;;;22.23;14.07;;;16.40;99.90;;;;;;5051240;28;20017;-80
2023/07/02 00:37:42;;;;;;;16.00;14.20;;;16.40;99.90;;;;;;5051268;28;20052;-79
2023/07/02 00:40:08;;;;;;;16.23;14.07;;;16.30;99.90;;;;;;5049728;28;20017;-79
2023/07/02 00:42:34;;;;;;;17.65;14.07;;;16.30;99.90;;;;;;5051118;28;20032;-80
2023/07/02 00:45:02;;;;;;;17.27;13.60;;;16.20;99.90;;;;;;5050000;28;20065;-79
2023/07/02 00:47:30;;;;;;;18.63;16.10;;;16.20;99.90;;;;;;5050915;28;20041;-79
2023/07/02 00:49:56;;;;;;;18.58;14.65;;;16.20;99.90;;;;;;5050952;28;20513;-79
2023/07/02 00:52:23;;;;;;;17.63;15.60;;;16.20;99.90;;;;;;5049630;28;20033;-79
2023/07/02 00:54:49;;;;;;;19.55;15.43;;;16.20;99.90;;;;;;5049786;28;20024;-79
2023/07/02 00:57:14;;;;;;;20.60;16.17;;;16.20;99.90;;;;;;5049631;28;20021;-80
2023/07/02 00:59:40;;;;;;;17.92;15.65;;;16.20;99.90;;;;;;5049584;28;20028;-80
2023/07/02 01:02:06;;;;;;;19.75;15.98;;;16.20;99.90;;;;;;5050711;28;20060;-79
2023/07/02 01:04:32;;;;;;;17.48;15.57;;;16.20;99.90;;;;;;5049606;28;20020;-79
2023/07/02 01:06:58;;;;;;;18.55;15.80;;;16.10;99.90;;;;;;5050736;28;20037;-79
2023/07/02 01:09:27;;;;;;;20.45;16.42;;;16.20;99.90;;;;;;5048723;28;20016;-79
2023/07/02 01:12:02;;;;;;;18.45;15.82;;;16.20;99.90;;;;;;5049388;28;20025;-82
2023/07/02 01:14:31;;;;;;;21.70;16.52;;;16.20;99.90;;;;;;5049471;28;20023;-82
2023/07/02 01:16:58;;;;;;;19.30;15.48;;;16.20;99.90;;;;;;5050721;28;20029;-81
2023/07/02 01:19:45;;;;;;;19.58;16.75;;;16.20;99.90;;;;;;5049175;28;20492;-81
2023/07/02 01:22:12;;;;;;;21.70;16.58;;;16.20;99.90;;;;;;5050670;28;20036;-82
2023/07/02 01:24:39;;;;;;;18.63;16.60;;;16.20;99.90;;;;;;5049318;28;20021;-82
2023/07/02 01:27:05;;;;;;;23.33;16.35;;;16.20;99.90;;;;;;5050443;28;20029;-82
2023/07/02 01:29:31;;;;;;;20.85;16.60;;;16.20;99.90;;;;;;5040119;28;20386;-82
2023/07/02 01:31:57;;;;;;;19.77;15.35;;;16.10;99.90;;;;;;5029230;28;20446;-82
2023/07/02 01:34:23;;;;;;;20.08;15.68;;;16.10;99.90;;;;;;5030481;28;20026;-82
2023/07/02 01:36:49;;;;;;;19.58;16.45;;;16.10;99.90;;;;;;5030491;28;20088;-82
2023/07/02 01:39:15;;;;;;;17.98;15.38;;;16.10;99.90;;;;;;5029275;28;20029;-82
2023/07/02 01:41:55;;;;;;;22.50;14.57;;;16.00;99.90;;;;;;5029296;28;20491;-82
2023/07/02 01:44:22;;;;;;;17.63;14.77;;;16.00;99.90;;;;;;5030301;28;20026;-81
2023/07/02 01:46:48;;;;;;;19.15;15.00;;;16.00;99.90;;;;;;5030262;28;20034;-82
2023/07/02 01:49:18;;;;;;;20.88;14.43;;;15.90;99.90;;;;;;5029185;28;20086;-82
2023/07/02 01:51:51;;;;;;;19.38;15.45;;;15.90;99.90;;;;;;5029168;28;20060;-82
2023/07/02 01:54:22;;;;;;;20.33;14.45;;;15.80;99.90;;;;;;5028972;28;20022;-82
2023/07/02 01:56:48;;;;;;;16.25;14.38;;;15.80;99.90;;;;;;5030447;28;20022;-82
2023/07/02 01:59:14;;;;;;;20.30;14.73;;;15.80;99.90;;;;;;5030425;28;20017;-82
2023/07/02 02:01:40;;;;;;;18.67;14.57;;;15.70;99.90;;;;;;5028860;28;20018;-82
2023/07/02 02:04:09;;;;;;;19.45;14.63;;;15.70;99.90;;;;;;5030411;28;20501;-82
2023/07/02 02:06:36;;;;;;;18.20;12.50;;;15.60;99.90;;;;;;5029956;28;20091;-82
2023/07/02 02:09:04;;;;;;;15.82;12.07;;;15.60;99.90;;;;;;5028837;28;20030;-82
2023/07/02 02:11:30;;;;;;;14.63;12.45;;;15.50;99.90;;;;;;5030376;28;20471;-82
2023/07/02 02:13:57;;;;;;;18.02;13.88;;;15.50;99.90;;;;;;5030105;28;20050;-82
2023/07/02 02:16:22;;;;;;;15.90;12.05;;;15.50;99.90;;;;;;5028693;28;20029;-82
2023/07/02 02:18:51;;;;;;;16.48;12.48;;;15.40;99.90;;;;;;5028724;28;20391;-81
2023/07/02 02:21:17;;;;;;;17.20;12.68;;;15.40;99.90;;;;;;5031626;28;20032;-81
2023/07/02 02:23:43;;;;;;;16.38;13.30;;;15.30;99.90;;;;;;5033539;28;20045;-82
2023/07/02 02:26:09;;;;;;;18.90;13.18;;;15.30;99.90;;;;;;5033332;28;20479;-82
2023/07/02 02:28:35;;;;;;;18.65;13.00;;;15.20;99.90;;;;;;5032069;28;20029;-82
2023/07/02 02:31:00;;;;;;;13.90;12.50;;;15.20;99.90;;;;;;5032000;28;20024;-82
2023/07/02 02:33:26;;;;;;;16.90;12.15;;;15.10;99.90;;;;;;5032100;28;20032;-83
2023/07/02 02:35:52;;;;;;;14.27;11.95;;;15.10;99.90;;;;;;5031934;28;20025;-82
2023/07/02 02:38:17;;;;;;;16.30;11.35;;;15.10;99.90;;;;;;5033190;28;20040;-82
2023/07/02 02:40:43;;;;;;;13.85;12.45;;;15.00;99.90;;;;;;5031716;28;20534;-82
2023/07/02 02:43:09;;;;;;;13.45;10.73;;;15.00;99.90;;;;;;5031932;28;20386;-82
2023/07/02 02:45:34;;;;;;;15.15;11.73;;;15.00;99.90;;;;;;5031767;28;20030;-82
2023/07/02 02:48:00;;;;;;;13.70;11.73;;;15.00;99.90;;;;;;5031726;28;20040;-82
2023/07/02 02:50:25;;;;;;;25.20;16.75;;;15.00;99.90;;;;;;5031801;28;20032;-82
2023/07/02 02:52:51;;;;;;;20.08;15.15;;;14.90;99.90;;;;;;5032994;28;20416;-82
2023/07/02 02:55:17;;;;;;;19.27;14.43;;;14.90;99.90;;;;;;5033049;28;20022;-82
2023/07/02 02:57:43;;;;;;;18.77;14.43;;;14.90;99.90;;;;;;5031846;28;20021;-82
2023/07/02 03:00:09;;;;;;;20.25;14.65;;;14.90;99.90;;;;;;5031738;28;20036;-82
2023/07/02 03:02:35;;;;;;;17.25;12.85;;;14.90;99.90;;;;;;5032850;28;20498;-83
2023/07/02 03:05:02;;;;;;;17.38;12.90;;;14.80;99.90;;;;;;5031796;28;20026;-82
2023/07/02 03:07:32;;;;;;;11.13;9.80;;;14.90;99.90;;;;;;5031404;28;20053;-82
2023/07/02 03:09:57;;;;;;;12.25;9.15;;;14.80;99.90;;;;;;5032752;28;20098;-82
2023/07/02 03:12:23;;;;;;;7.03;6.43;;;14.80;99.90;;;;;;5031385;28;20476;-82
2023/07/02 03:14:52;;;;;;;8.77;6.57;;;14.70;99.90;;;;;;5032492;28;20104;-82
2023/07/02 03:17:19;;;;;;;7.13;6.53;;;14.70;99.90;;;;;;5032578;28;20368;-82
2023/07/02 03:19:44;;;;;;;7.70;6.85;;;14.70;99.90;;;;;;5031387;28;20025;-82
2023/07/02 03:22:10;;;;;;;9.50;7.97;;;14.70;99.90;;;;;;5031223;28;20024;-82
2023/07/02 03:24:36;;;;;;;9.18;8.25;;;14.70;99.90;;;;;;5031351;28;20082;-82
2023/07/02 03:27:01;;;;;;;12.77;9.30;;;14.70;99.90;;;;;;5031380;28;20065;-82
2023/07/02 03:29:27;;;;;;;13.52;8.68;;;14.80;99.90;;;;;;5032391;28;20025;-82
2023/07/02 03:31:52;;;;;;;9.43;8.40;;;15.00;99.90;;;;;;5031681;28;20033;-83
2023/07/02 03:34:18;;;;;;;11.70;9.23;;;15.10;99.90;;;;;;5032380;28;20036;-80
2023/07/02 03:36:44;;;;;;;16.35;13.65;;;15.20;99.90;;;;;;5032259;28;20026;-80
2023/07/02 03:39:10;;;;;;;12.73;10.32;;;15.30;99.90;;;;;;5032220;28;20022;-80
2023/07/02 03:41:35;;;;;;;10.13;9.15;;;15.40;99.90;;;;;;5031963;28;20098;-80
2023/07/02 03:44:01;;;;;;;11.73;7.70;;;15.60;99.90;;;;;;5030937;28;20022;-80
2023/07/02 03:46:27;;;;;;;10.82;8.27;;;15.70;99.90;;;;;;5032155;28;20030;-80
2023/07/02 03:48:52;;;;;;;9.63;8.68;;;15.80;99.90;;;;;;5032233;28;20352;-80
2023/07/02 03:51:18;;;;;;;12.18;10.07;;;15.90;99.90;;;;;;5030754;28;20017;-80
2023/07/02 03:53:43;;;;;;;18.75;10.80;;;16.10;99.90;;;;;;5032114;28;20024;-80
2023/07/02 03:56:09;;;;;;;11.55;9.25;;;16.30;99.90;;;;;;5030765;28;20120;-80
2023/07/02 03:58:35;;;;;;;8.52;7.72;;;16.40;99.90;;;;;;5030827;28;20021;-80
2023/07/02 04:01:01;;;;;;;10.88;9.30;;;16.50;99.90;;;;;;5030583;28;20048;-79
2023/07/02 04:03:27;;;;;;;8.27;7.30;;;16.70;99.90;;;;;;5030766;28;20056;-79
2023/07/02 04:05:52;;;;;;;7.50;6.80;;;16.70;99.90;;;;;;5031396;28;20033;-80
2023/07/02 04:08:20;;;;;;;8.35;7.55;;;16.90;99.90;;;;;;5031788;28;20425;-80
2023/07/02 04:10:46;;;;;;;8.18;7.38;;;17.00;99.90;;;;;;5030435;28;20052;-82
2023/07/02 04:13:12;;;;;;;8.38;7.57;;;17.10;99.90;;;;;;5030472;28;20010;-83
2023/07/02 04:15:37;;;;;;;8.73;7.88;;;17.20;99.90;;;;;;5030419;28;20070;-83
2023/07/02 04:18:03;;;;;;;10.45;9.40;;;17.20;99.90;;;;;;5031626;28;20471;-82
2023/07/02 04:20:29;;;;;;;9.73;8.82;;;17.40;99.90;;;;;;5030443;28;20021;-80
2023/07/02 04:22:55;;;;;;;13.57;10.35;;;17.50;99.90;;;;;;5031539;28;20443;-79
2023/07/02 04:25:20;;;;;;;21.20;15.75;;;17.60;99.90;;;;;;5031515;28;20101;-81
2023/07/02 04:27:46;;;;;;;28.92;20.02;;;17.80;99.90;;;;;;5030260;28;20121;-81
2023/07/02 04:30:14;;;;;;;48.70;31.95;;;17.90;99.90;;;;;;5030510;28;20063;-81
2023/07/02 04:32:40;;;;;;;39.17;23.73;;;18.10;99.90;;;;;;5031541;28;20021;-80
2023/07/02 04:35:11;;;;;;;22.65;16.48;;;18.10;99.90;;;;;;5031571;28;20032;-80
2023/07/02 04:37:37;;;;;;;25.10;18.75;;;18.10;99.90;;;;;;5031379;28;20026;-81
2023/07/02 04:40:09;;;;;;;31.98;22.92;;;18.10;99.90;;;;;;5029772;28;20546;-79
2023/07/02 04:42:37;;;;;;;34.78;22.73;;;18.10;99.90;;;;;;5029972;28;20113;-79
2023/07/02 04:45:08;;;;;;;24.88;19.45;;;18.10;99.90;;;;;;5029316;28;20026;-80
2023/07/02 04:47:34;;;;;;;26.98;20.15;;;18.20;99.90;;;;;;5029913;28;20080;-80
2023/07/02 04:50:01;;;;;;;26.50;21.02;;;18.30;99.90;;;;;;5030277;28;20095;-81
2023/07/02 04:52:27;;;;;;;28.10;20.58;;;18.60;99.90;;;;;;5031113;28;20026;-80
2023/07/02 04:54:53;;;;;;;33.45;23.80;;;18.70;99.90;;;;;;5029879;28;20471;-81
2023/07/02 04:57:19;;;;;;;37.20;25.63;;;18.90;99.90;;;;;;5029671;28;20026;-81
2023/07/02 04:59:44;;;;;;;30.38;23.35;;;19.10;99.90;;;;;;5031100;28;20059;-80
2023/07/02 05:02:10;;;;;;;35.20;23.98;;;19.30;99.90;;;;;;5029365;28;20026;-82
2023/07/02 05:04:39;;;;;;;33.45;24.45;;;19.40;99.90;;;;;;5029817;28;20036;-81
2023/07/02 05:07:05;;;;;;;24.05;20.48;;;19.60;99.90;;;;;;5029677;28;20022;-81
2023/07/02 05:09:30;;;;;;;30.83;22.73;;;19.70;99.90;;;;;;5029600;28;20051;-81
2023/07/02 05:11:57;;;;;;;39.45;30.35;;;19.80;99.90;;;;;;5029558;28;20117;-81
2023/07/02 05:14:22;;;;;;;61.95;39.67;;;19.80;99.90;;;;;;5030906;28;20041;-82
2023/07/02 05:16:48;;;;;;;34.90;26.13;;;19.80;99.90;;;;;;5029505;28;20473;-81
2023/07/02 05:19:14;;;;;;;26.55;21.98;;;19.70;99.90;;;;;;5030843;28;20018;-80
2023/07/02 05:21:40;;;;;;;41.25;30.15;;;19.70;99.90;;;;;;5029477;28;20022;-81
2023/07/02 05:24:06;;;;;;;32.15;25.23;;;19.60;99.90;;;;;;5030648;28;20018;-81
2023/07/02 05:26:32;;;;;;;32.17;22.25;;;19.60;99.90;;;;;;5030464;28;20082;-80
2023/07/02 05:28:58;;;;;;;39.67;23.02;;;19.60;99.90;;;;;;5029211;28;20457;-80
2023/07/02 05:31:23;;;;;;;40.67;23.25;;;19.60;99.90;;;;;;5030596;28;20022;-80
2023/07/02 05:33:49;;;;;;;43.20;26.42;;;19.70;99.90;;;;;;5029554;28;20026;-80
2023/07/02 05:36:15;;;;;;;34.28;23.08;;;19.70;99.90;;;;;;5030383;28;20029;-81
2023/07/02 05:38:40;;;;;;;32.42;21.95;;;19.70;99.90;;;;;;5029343;28;20022;-80
2023/07/02 05:41:06;;;;;;;33.60;23.20;;;19.80;99.90;;;;;;5029088;28;20057;-80
2023/07/02 05:43:31;;;;;;;46.22;28.58;;;19.80;99.90;;;;;;5030469;28;20022;-80
2023/07/02 05:46:00;;;;;;;30.27;21.45;;;20.00;99.90;;;;;;5029026;28;20025;-80
2023/07/02 05:48:27;;;;;;;49.47;32.50;;;20.00;99.90;;;;;;5029323;28;20489;-80
2023/07/02 05:50:53;;;;;;;43.35;26.90;;;20.00;99.90;;;;;;5030192;28;20025;-80
2023/07/02 05:53:18;;;;;;;31.88;24.85;;;20.10;99.90;;;;;;5030382;28;20037;-80
2023/07/02 05:55:44;;;;;;;38.33;22.52;;;20.20;99.90;;;;;;5031084;28;20475;-80
2023/07/02 05:58:10;;;;;;;33.95;17.77;;;20.20;99.90;;;;;;5033766;28;20029;-80
2023/07/02 06:00:36;;;;;;;18.77;13.52;;;20.00;99.90;;;;;;5032446;28;20148;-79
2023/07/02 06:03:02;;;;;;;21.38;13.60;;;19.80;99.90;;;;;;5033659;28;20098;-79
2023/07/02 06:05:28;;;;;;;17.83;12.25;;;19.80;99.90;;;;;;5033631;28;20025;-79
2023/07/02 06:07:54;;;;;;;26.85;14.93;;;19.80;99.90;;;;;;5039218;28;20044;-80
2023/07/02 06:10:19;;;;;;;24.95;14.30;;;19.70;99.90;;;;;;5051949;28;20101;-79
2023/07/02 06:12:45;;;;;;;17.92;12.45;;;19.60;99.90;;;;;;5051926;28;20070;-79
2023/07/02 06:15:11;;;;;;;13.30;9.73;;;19.50;99.90;;;;;;5051889;28;20025;-81
2023/07/02 06:17:37;;;;;;;13.30;8.73;;;19.40;99.90;;;;;;5053179;28;20025;-81
2023/07/02 06:20:07;;;;;;;9.43;7.50;;;19.30;99.90;;;;;;5053089;28;20033;-81
2023/07/02 06:22:32;;;;;;;12.90;7.88;;;19.20;99.90;;;;;;5051823;28;20416;-80
2023/07/02 06:24:58;;;;;;;9.57;7.53;;;19.20;99.90;;;;;;5051919;28;20029;-80
2023/07/02 06:27:24;;;;;;;16.20;8.40;;;19.20;99.90;;;;;;5053269;28;20029;-80
2023/07/02 06:29:50;;;;;;;10.98;7.55;;;19.30;99.90;;;;;;5053164;28;20045;-83
2023/07/02 06:32:16;;;;;;;10.32;6.72;;;19.40;99.90;;;;;;5047100;28;20506;-82
2023/07/02 06:34:42;;;;;;;11.85;7.38;;;19.40;99.90;;;;;;5043551;28;20021;-81
2023/07/02 06:37:07;;;;;;;9.75;7.45;;;19.50;99.90;;;;;;5050001;27;20049;-82
2023/07/02 06:39:33;;;;;;;11.32;6.53;;;19.70;99.90;;;;;;5042596;28;20051;-81
2023/07/02 06:41:58;;;;;;;9.32;6.45;;;19.60;99.90;;;;;;5042212;28;20049;-80
2023/07/02 06:44:24;;;;;;;8.68;5.68;;;19.70;99.90;;;;;;5042061;28;20025;-80
2023/07/02 06:46:49;;;;;;;10.57;6.85;;;19.80;99.90;;;;;;5043476;28;20397;-80
2023/07/02 06:49:15;;;;;;;7.47;5.20;;;19.70;99.90;;;;;;5030751;28;20037;-80
2023/07/02 06:51:41;;;;;;;9.50;5.15;;;19.70;99.90;;;;;;5040125;28;20025;-81
2023/07/02 06:54:07;;;;;;;6.00;4.22;;;19.90;99.90;;;;;;5042487;28;20021;-80
2023/07/02 06:56:33;;;;;;;5.57;4.18;;;20.10;99.90;;;;;;5042938;28;20022;-81
2023/07/02 06:59:00;;;;;;;6.53;4.20;;;20.40;99.90;;;;;;5041105;28;20070;-82
2023/07/02 07:01:25;;;;;;;4.97;3.38;;;20.50;99.90;;;;;;5043856;28;20061;-82
2023/07/02 07:03:51;;;;;;;3.38;2.63;;;20.70;99.90;;;;;;5043910;28;20017;-80
2023/07/02 07:06:16;;;;;;;5.15;3.72;;;20.70;99.90;;;;;;5040875;28;20108;-82
2023/07/02 07:08:42;;;;;;;4.90;4.00;;;20.90;99.90;;;;;;5040901;28;20095;-82
2023/07/02 07:11:08;;;;;;;5.25;3.47;;;20.90;99.90;;;;;;5043248;28;20021;-81
2023/07/02 07:13:33;;;;;;;4.25;3.58;;;20.90;99.90;;;;;;5041744;28;20078;-82
2023/07/02 07:15:59;;;;;;;3.58;2.65;;;20.80;99.90;;;;;;5042569;28;20431;-81
2023/07/02 07:18:24;;;;;;;3.30;2.60;;;20.70;99.90;;;;;;5042145;28;20031;-81
2023/07/02 07:20:52;;;;;;;4.90;2.80;;;20.70;99.90;;;;;;5042375;28;20079;-81
2023/07/02 07:23:18;;;;;;;4.50;2.50;;;20.50;99.90;;;;;;5040452;28;20056;-81
2023/07/02 07:25:43;;;;;;;5.43;2.83;;;20.40;99.90;;;;;;5039896;28;20061;-82
2023/07/02 07:28:15;;;;;;;5.82;4.35;;;20.50;99.90;;;;;;5035968;28;20037;-81
2023/07/02 07:30:41;;;;;;;4.05;3.72;;;20.60;99.90;;;;;;5031863;28;20033;-81
2023/07/02 07:33:06;;;;;;;3.40;2.70;;;20.60;99.90;;;;;;5037131;28;20032;-81
2023/07/02 07:35:32;;;;;;;6.28;2.83;;;20.80;99.90;;;;;;5037165;28;20022;-81
2023/07/02 07:37:58;;;;;;;3.47;3.13;;;21.10;99.90;;;;;;5036885;28;20026;-81
2023/07/02 07:40:23;;;;;;;6.38;3.45;;;21.40;99.90;;;;;;5030632;28;20125;-82
2023/07/02 07:42:49;;;;;;;7.70;3.30;;;21.30;99.20;;;;;;5033135;28;20182;-82
2023/07/02 07:45:14;;;;;;;5.78;3.63;;;21.30;98.10;;;;;;5031998;28;20074;-82
2023/07/02 07:47:40;;;;;;;5.43;3.90;;;21.40;99.90;;;;;;5041867;28;20034;-82
2023/07/02 07:50:11;;;;;;;5.57;3.33;;;21.60;99.90;;;;;;5030590;28;20049;-82
2023/07/02 07:52:40;;;;;;;7.80;2.97;;;21.60;97.70;;;;;;5034391;28;20384;-82
2023/07/02 07:55:07;;;;;;;8.57;3.20;;;21.50;95.80;;;;;;5032122;28;20029;-82
2023/07/02 07:57:34;;;;;;;4.75;2.90;;;21.00;89.80;;;;;;5031714;28;20026;-83
2023/07/02 08:00:00;;;;;;;6.35;3.65;;;21.10;92.20;;;;;;5031725;28;20456;-81
2023/07/02 08:02:26;;;;;;;5.63;3.72;;;21.10;95.50;;;;;;5031745;28;20061;-81
2023/07/02 08:04:51;;;;;;;5.15;3.00;;;21.30;96.10;;;;;;5030606;28;20025;-82
2023/07/02 08:07:17;;;;;;;4.45;3.25;;;21.60;94.40;;;;;;5032953;28;20061;-82
2023/07/02 08:09:42;;;;;;;6.80;3.03;;;21.40;90.90;;;;;;5044780;28;20029;-82
2023/07/02 08:12:08;;;;;;;2.80;2.60;;;21.30;91.20;;;;;;5050353;28;20073;-83
2023/07/02 08:14:37;;;;;;;4.15;2.90;;;21.10;92.70;;;;;;5050516;28;20025;-83
2023/07/02 08:17:03;;;;;;;5.10;2.92;;;20.90;96.10;;;;;;5051455;28;20114;-81
2023/07/02 08:19:28;;;;;;;4.72;3.33;;;21.00;92.80;;;;;;5050933;28;20081;-81
2023/07/02 08:21:54;;;;;;;3.17;2.88;;;20.70;92.40;;;;;;5049912;28;20021;-81
2023/07/02 08:24:19;;;;;;;3.88;2.58;;;20.70;94.20;;;;;;5049936;28;20401;-81
2023/07/02 08:26:46;;;;;;;5.35;3.22;;;20.60;95.80;;;;;;5049751;28;20509;-81
2023/07/02 08:29:12;;;;;;;4.63;2.75;;;20.50;94.30;;;;;;5049782;28;20021;-81
2023/07/02 08:31:38;;;;;;;3.30;2.63;;;20.30;94.50;;;;;;5050964;28;20025;-82
2023/07/02 08:34:04;;;;;;;5.10;2.97;;;20.30;98.60;;;;;;5049562;28;20021;-81
2023/07/02 08:36:29;;;;;;;3.83;3.03;;;20.10;95.50;;;;;;5050953;28;20100;-81
2023/07/02 08:38:55;;;;;;;6.28;3.08;;;20.20;97.90;;;;;;5050642;28;20033;-81
2023/07/02 08:41:23;;;;;;;3.92;2.65;;;20.10;94.10;;;;;;5049526;28;20044;-80
2023/07/02 08:43:49;;;;;;;3.67;2.88;;;20.40;97.70;;;;;;5050889;28;20066;-81
2023/07/02 08:46:16;;;;;;;5.80;3.05;;;20.50;96.70;;;;;;5050865;28;20021;-82
2023/07/02 08:48:42;;;;;;;5.20;2.53;;;20.40;94.50;;;;;;5051078;28;20054;-81
2023/07/02 08:51:08;;;;;;;5.22;3.35;;;20.40;97.00;;;;;;5050700;28;20021;-81
2023/07/02 08:53:34;;;;;;;2.65;2.20;;;20.10;98.50;;;;;;5049761;28;20367;-80
2023/07/02 08:56:00;;;;;;;3.42;3.05;;;20.20;99.90;;;;;;5049525;28;20050;-81
2023/07/02 08:58:26;;;;;;;4.63;2.70;;;20.20;99.90;;;;;;5039877;28;20116;-81
2023/07/02 09:01:10;;;;;;;3.40;2.92;;;20.40;99.90;;;;;;5030626;28;20108;-81
2023/07/02 09:03:39;;;;;;;4.07;2.83;;;20.50;99.90;;;;;;5029325;28;20029;-82
2023/07/02 09:06:06;;;;;;;3.60;3.10;;;20.40;99.90;;;;;;5029265;28;20022;-81
2023/07/02 09:08:33;;;;;;;4.00;2.97;;;20.50;99.90;;;;;;5029344;28;20037;-81
2023/07/02 09:11:06;;;;;;;4.07;3.30;;;20.60;99.90;;;;;;5029186;28;20025;-81
2023/07/02 09:13:31;;;;;;;3.97;2.83;;;20.30;99.90;;;;;;5029096;28;20030;-81
2023/07/02 09:15:57;;;;;;;3.42;3.13;;;20.00;99.90;;;;;;5029129;28;20030;-81
2023/07/02 09:18:26;;;;;;;3.78;3.47;;;19.70;99.90;;;;;;5033116;28;20048;-80
2023/07/02 09:20:55;;;;;;;3.38;3.08;;;19.60;99.90;;;;;;5031591;28;20029;-80
2023/07/02 09:23:21;;;;;;;3.63;3.15;;;19.50;99.90;;;;;;5029222;28;20029;-80
2023/07/02 09:25:47;;;;;;;3.58;3.28;;;19.20;99.90;;;;;;5028952;28;20028;-80
2023/07/02 09:28:22;;;;;;;5.60;3.28;;;19.00;99.90;;;;;;5028979;28;20403;-81
2023/07/02 09:30:51;;;;;;;4.22;3.83;;;19.00;99.90;;;;;;5029735;28;20034;-81
2023/07/02 09:33:17;;;;;;;3.45;2.92;;;18.80;99.90;;;;;;5029652;28;20398;-80
2023/07/02 09:35:43;;;;;;;4.60;3.30;;;18.80;99.90;;;;;;5049952;28;20104;-81
2023/07/02 09:38:09;;;;;;;7.35;4.85;;;18.80;99.90;;;;;;5049942;28;20493;-80
2023/07/02 09:40:44;;;;;;;5.28;4.55;;;18.70;99.90;;;;;;5048577;28;20049;-82
2023/07/02 09:43:11;;;;;;;5.60;3.80;;;18.50;99.90;;;;;;5048767;28;20077;-82
2023/07/02 09:45:36;;;;;;;4.43;4.07;;;18.40;99.90;;;;;;5048295;28;20033;-80
2023/07/02 09:48:04;;;;;;;5.18;3.88;;;18.40;99.90;;;;;;5048645;28;20093;-81
2023/07/02 09:50:30;;;;;;;4.13;3.83;;;18.30;99.90;;;;;;5049624;28;20018;-80
2023/07/02 09:52:56;;;;;;;4.65;4.25;;;18.40;99.90;;;;;;5043883;27;20470;-80
2023/07/02 09:55:21;;;;;;;4.80;4.32;;;18.40;99.90;;;;;;5047606;27;20152;-80
2023/07/02 09:57:47;;;;;;;4.72;4.32;;;18.60;99.90;;;;;;5039177;28;20025;-80
2023/07/02 10:00:14;;;;;;;4.72;4.15;;;18.80;99.90;;;;;;5043549;28;20070;-83
2023/07/02 10:02:40;;;;;;;5.32;4.28;;;19.00;99.90;;;;;;5032057;28;20034;-81
2023/07/02 10:05:06;;;;;;;6.00;4.88;;;19.20;99.90;;;;;;5028943;28;20066;-81
2023/07/02 10:07:33;;;;;;;4.95;4.05;;;19.60;99.90;;;;;;5028945;28;20495;-78
2023/07/02 10:09:59;;;;;;;5.88;3.95;;;19.80;99.90;;;;;;5031117;28;20112;-80
2023/07/02 10:12:29;;;;;;;5.38;3.88;;;20.30;99.90;;;;;;5048727;28;20125;-79
2023/07/02 10:14:57;;;;;;;4.43;3.50;;;20.30;99.90;;;;;;5048933;28;20108;-81
2023/07/02 10:17:28;;;;;;;4.07;3.72;;;20.80;99.90;;;;;;5049855;28;20032;-81
2023/07/02 10:19:55;;;;;;;4.22;3.15;;;21.00;99.90;;;;;;5049951;28;20497;-81
2023/07/02 10:22:21;;;;;;;4.88;3.47;;;20.80;99.90;;;;;;5048606;28;20027;-79
2023/07/02 10:24:59;;;;;;;4.10;3.70;;;21.00;99.90;;;;;;5050031;28;20478;-79
2023/07/02 10:27:39;;;;;;;4.80;3.45;;;21.00;99.90;;;;;;5048503;28;20367;-80
2023/07/02 10:30:06;;;;;;;4.97;3.50;;;21.00;99.90;;;;;;5048502;28;20036;-81
2023/07/02 10:32:34;;;;;;;3.90;3.42;;;21.00;99.90;;;;;;5048255;28;20390;-81
2023/07/02 10:35:12;;;;;;;3.85;3.55;;;21.20;99.90;;;;;;5049782;28;20493;-80
2023/07/02 10:37:38;;;;;;;3.75;3.17;;;21.30;99.90;;;;;;5049687;28;20021;-81
2023/07/02 10:40:07;;;;;;;4.55;3.70;;;21.20;99.90;;;;;;5048139;28;20023;-81
2023/07/02 10:42:36;;;;;;;4.78;3.95;;;21.60;99.90;;;;;;5050010;28;20025;-81
2023/07/02 10:45:01;;;;;;;4.60;4.18;;;21.90;99.90;;;;;;5052978;28;20416;-81
2023/07/02 10:47:28;;;;;;;6.28;4.30;;;21.90;99.90;;;;;;5053117;28;20029;-81
2023/07/02 10:49:54;;;;;;;4.03;3.72;;;21.90;99.90;;;;;;5052528;28;20021;-81
2023/07/02 10:52:20;;;;;;;4.20;3.80;;;21.70;98.90;;;;;;5051110;28;20021;-81
2023/07/02 10:54:46;;;;;;;7.30;5.20;;;21.60;98.20;;;;;;5051866;28;20077;-81
2023/07/02 10:57:22;;;;;;;8.63;4.85;;;21.60;95.50;;;;;;5051443;28;20607;-80
2023/07/02 10:59:48;;;;;;;4.70;4.30;;;21.60;97.10;;;;;;5052297;28;20061;-79
2023/07/02 11:02:15;;;;;;;5.03;4.53;;;21.60;97.10;;;;;;5039202;28;20026;-79
2023/07/02 11:04:41;;;;;;;5.28;4.78;;;21.50;95.10;;;;;;5029306;28;20028;-79
2023/07/02 11:07:06;;;;;;;6.00;4.82;;;21.70;96.90;;;;;;5030725;28;20399;-79
2023/07/02 11:09:32;;;;;;;5.60;5.10;;;21.90;95.00;;;;;;5029939;28;20159;-81
2023/07/02 11:11:59;;;;;;;5.63;5.13;;;22.20;95.20;;;;;;5029967;28;20050;-81
2023/07/02 11:14:33;;;;;;;6.32;5.45;;;22.40;92.10;;;;;;5031201;28;20106;-81
2023/07/02 11:17:03;;;;;;;8.15;6.43;;;22.10;86.70;;;;;;5032730;28;20104;-80
2023/07/02 11:19:29;;;;;;;7.38;6.00;;;22.20;89.80;;;;;;5031259;28;20102;-81
2023/07/02 11:21:57;;;;;;;6.68;5.95;;;22.50;93.50;;;;;;5031142;28;20026;-80
2023/07/02 11:24:34;;;;;;;7.10;5.05;;;22.60;91.50;;;;;;5031476;28;20108;-81
2023/07/02 11:27:01;;;;;;;6.53;5.30;;;22.50;83.60;;;;;;5032504;28;20046;-81
2023/07/02 11:29:38;;;;;;;7.75;6.40;;;22.70;86.20;;;;;;5031818;28;20036;-81
2023/07/02 11:32:14;;;;;;;6.43;5.72;;;22.70;89.30;;;;;;5031225;28;20083;-82
2023/07/02 11:34:39;;;;;;;6.80;5.60;;;22.80;89.30;;;;;;5031919;28;20025;-81
2023/07/02 11:37:05;;;;;;;7.53;5.43;;;22.70;85.00;;;;;;5038298;28;20113;-80
2023/07/02 11:39:32;;;;;;;11.18;5.43;;;22.50;85.60;;;;;;5033485;28;20102;-80
2023/07/02 11:41:57;;;;;;;7.30;4.60;;;22.30;86.00;;;;;;5031946;28;20049;-80
2023/07/02 11:44:23;;;;;;;6.18;5.40;;;22.30;83.40;;;;;;5031372;28;20017;-80
2023/07/02 11:46:49;;;;;;;6.43;4.95;;;22.20;82.80;;;;;;5031880;27;20389;-82
2023/07/02 11:49:15;;;;;;;4.88;4.18;;;22.20;84.50;;;;;;5049166;27;20383;-82
2023/07/02 11:51:48;;;;;;;5.97;4.70;;;22.20;85.70;;;;;;5050956;28;20056;-82
2023/07/02 11:54:13;;;;;;;8.55;5.47;;;22.10;84.90;;;;;;5049564;27;20516;-81
2023/07/02 11:56:41;;;;;;;5.32;4.43;;;22.50;87.60;;;;;;5049552;27;20029;-82
2023/07/02 11:59:07;;;;;;;5.80;4.13;;;22.80;85.40;;;;;;5031306;28;20082;-82
2023/07/02 12:01:33;;;;;;;4.68;3.53;;;23.10;82.80;;;;;;5031365;28;20067;-82
2023/07/02 12:03:59;;;;;;;3.42;3.13;;;23.40;81.90;;;;;;5030904;28;20085;-83
2023/07/02 12:06:24;;;;;;;7.63;3.90;;;23.30;78.70;;;;;;5029904;28;20025;-82
2023/07/02 12:08:50;;;;;;;5.20;3.40;;;23.40;79.10;;;;;;5029767;28;20479;-82
2023/07/02 12:11:15;;;;;;;4.75;3.78;;;23.40;78.10;;;;;;5029719;28;20021;-82
2023/07/02 12:13:41;;;;;;;4.97;3.88;;;23.50;76.20;;;;;;5030901;28;20041;-82
2023/07/02 12:16:07;;;;;;;4.22;3.47;;;23.40;75.70;;;;;;5030195;28;20116;-82
2023/07/02 12:18:32;;;;;;;4.85;3.90;;;23.50;77.30;;;;;;5028881;28;20017;-82
2023/07/02 12:20:58;;;;;;;4.78;3.80;;;23.50;73.70;;;;;;5030877;28;20025;-82
2023/07/02 12:23:24;;;;;;;6.72;3.72;;;23.40;73.90;;;;;;5029695;28;20425;-82
2023/07/02 12:25:49;;;;;;;4.05;3.65;;;23.50;74.40;;;;;;5029244;28;20109;-85
2023/07/02 12:28:15;;;;;;;4.90;3.83;;;23.40;74.10;;;;;;5042299;28;20033;-83
2023/07/02 12:30:41;;;;;;;5.40;4.10;;;23.50;74.80;;;;;;5050216;28;20097;-78
2023/07/02 12:33:06;;;;;;;3.38;3.08;;;23.70;75.00;;;;;;5048917;28;20029;-84
2023/07/02 12:35:39;;;;;;;4.35;2.80;;;23.70;70.30;;;;;;5049370;28;20534;-84